Погода Жалисна неделю

Сан-Паулу, Бразилия

16 - 22 июля
  • 16июля
    Сегодня
    +16°
    +30°
    Облачно с прояснениями
    ВремяПогодаТемператураВлажностьДавлениеВетер, м/сВероятность осадков
    00:00Ясно и безоблачно+20°C74 %729 мм3.4 м/с5 %
    03:00Ясно и безоблачно+18°C78 %728 мм3.3 м/с5 %
    06:00Ясно и безоблачно+17°C78 %728 мм3.3 м/с5 %
    09:00Практически безоблачно+19°C57 %730 мм3.5 м/с5 %
    12:00Облачно с прояснениями+27°C32 %730 мм2.6 м/с5 %
    15:00Облачно с прояснениями+29°C26 %728 мм2.2 м/с5 %
    18:00Ясно и безоблачно+26°C36 %728 мм1.9 м/с5 %
    21:00Практически безоблачно+23°C46 %729 мм2.9 м/с5 %
  • 17июля
    Среда
    +17°
    +30°
    Ясно и безоблачно
    ВремяПогодаТемператураВлажностьДавлениеВетер, м/сВероятность осадков
    00:00Ясно и безоблачно+21°C60 %729 мм3.2 м/с5 %
    03:00Ясно и безоблачно+19°C65 %728 мм3.1 м/с5 %
    06:00Ясно и безоблачно+18°C75 %728 мм2.9 м/с5 %
    09:00Ясно и безоблачно+20°C57 %731 мм3.4 м/с5 %
    12:00Ясно и безоблачно+27°C34 %730 мм1.8 м/с5 %
    15:00Ясно и безоблачно+30°C27 %728 мм2.1 м/с5 %
    18:00Ясно и безоблачно+26°C38 %728 мм2.1 м/с5 %
    21:00Ясно и безоблачно+23°C49 %728 мм2.8 м/с5 %
  • 18июля
    Четверг
    +19°
    +32°
    Ясно и безоблачно
    ВремяПогодаТемператураВлажностьДавлениеВетер, м/сВероятность осадков
    00:00Ясно и безоблачно+20°C56 %728 мм2.3 м/с5 %
    03:00Ясно и безоблачно+19°C63 %727 мм3.1 м/с5 %
    06:00Ясно и безоблачно+19°C69 %727 мм3.4 м/с5 %
    09:00Ясно и безоблачно+21°C54 %729 мм3.5 м/с5 %
    12:00Ясно и безоблачно+29°C32 %729 мм3.7 м/с5 %
    15:00Ясно и безоблачно+31°C26 %727 мм1.7 м/с5 %
    18:00Ясно и безоблачно+28°C36 %727 мм2.3 м/с5 %
    21:00Ясно и безоблачно+25°C50 %728 мм3.8 м/с5 %
  • 19июля
    Пятница
    +19°
    +32°
    Ясно и безоблачно
    ВремяПогодаТемператураВлажностьДавлениеВетер, м/сВероятность осадков
    00:00Ясно и безоблачно+22°C56 %728 мм3.5 м/с5 %
    03:00Ясно и безоблачно+20°C56 %727 мм3.6 м/с5 %
    06:00Ясно и безоблачно+19°C59 %728 мм3.6 м/с5 %
    09:00Ясно и безоблачно+22°C45 %730 мм4.2 м/с5 %
    12:00Ясно и безоблачно+30°C28 %730 мм3.5 м/с5 %
    15:00Ясно и безоблачно+32°C23 %728 мм1.6 м/с5 %
    18:00Ясно и безоблачно+28°C34 %728 мм2.0 м/с5 %
    21:00Ясно и безоблачно+25°C48 %729 мм3.6 м/с5 %
Мы используем cookies
Соглашаюсь